createdAt,value
2018-11-02T00:01:33.717Z,76.18
2018-11-02T00:04:03.457Z,76.17
2018-11-02T00:06:34.215Z,76.02
2018-11-02T00:09:03.396Z,76.16
2018-11-02T00:11:32.953Z,76.29
2018-11-02T00:14:02.428Z,76.26
2018-11-02T00:16:31.875Z,76.39
2018-11-02T00:19:01.811Z,76.28
2018-11-02T00:21:31.519Z,76.24
2018-11-02T00:24:01.059Z,76.15
2018-11-02T00:26:30.695Z,76.27
2018-11-02T00:28:59.981Z,76.20
2018-11-02T00:31:29.266Z,76.37
2018-11-02T00:33:59.040Z,76.30
2018-11-02T00:36:28.307Z,76.46
2018-11-02T00:38:57.831Z,76.53
2018-11-02T00:41:27.494Z,76.74
2018-11-02T00:43:56.900Z,76.76
2018-11-02T00:46:26.207Z,76.78
2018-11-02T00:48:55.963Z,76.73
2018-11-02T00:51:25.202Z,76.75
2018-11-02T00:53:54.441Z,76.95
2018-11-02T00:56:24.200Z,77.04
2018-11-02T00:58:53.504Z,77.19
2018-11-02T01:01:22.902Z,77.24
2018-11-02T01:03:52.458Z,77.17
2018-11-02T01:06:22.001Z,77.23
2018-11-02T01:08:51.386Z,77.18
2018-11-02T01:11:21.248Z,77.02
2018-11-02T01:13:50.577Z,77.31
2018-11-02T01:16:19.917Z,77.44
2018-11-02T01:18:49.597Z,77.43
2018-11-02T01:21:18.960Z,77.65
2018-11-02T01:23:48.404Z,77.51
2018-11-02T01:26:18.078Z,77.64
2018-11-02T01:28:47.780Z,77.42
2018-11-02T01:31:17.197Z,77.70
2018-11-02T01:33:46.794Z,77.60
2018-11-02T01:36:16.261Z,77.69
2018-11-02T01:38:45.501Z,77.87
2018-11-02T01:41:15.157Z,77.91
2018-11-02T01:43:44.524Z,78.21
2018-11-02T01:46:14.380Z,77.91
2018-11-02T01:48:44.054Z,78.14
2018-11-02T01:51:13.378Z,78.13
2018-11-02T01:53:42.759Z,78.02
2018-11-02T01:56:12.303Z,78.33
2018-11-02T01:58:41.612Z,78.23
2018-11-02T02:01:10.669Z,78.37
2018-11-02T02:03:40.253Z,78.22
2018-11-02T02:06:09.591Z,78.39
2018-11-02T02:08:38.791Z,78.54
2018-11-02T02:11:08.374Z,78.57
2018-11-02T02:13:37.782Z,78.38
2018-11-02T02:16:07.139Z,78.36
2018-11-02T02:18:36.777Z,78.26
2018-11-02T02:21:06.169Z,78.28
2018-11-02T02:23:35.307Z,78.36
2018-11-02T02:26:05.305Z,78.40
2018-11-02T02:28:34.616Z,78.48
2018-11-02T02:31:03.946Z,78.69
2018-11-02T02:33:33.891Z,78.53
2018-11-02T02:36:03.464Z,78.34
2018-11-02T02:38:32.648Z,78.43
2018-11-02T02:41:02.639Z,78.34
2018-11-02T02:43:32.136Z,78.46
2018-11-02T02:46:01.357Z,78.30
2018-11-02T02:48:30.897Z,78.32
2018-11-02T02:51:00.089Z,78.23
2018-11-02T02:53:29.293Z,78.19
2018-11-02T02:55:58.943Z,78.21
2018-11-02T02:58:28.323Z,78.31
2018-11-02T03:00:57.619Z,78.16
2018-11-02T03:03:27.222Z,78.30
2018-11-02T03:05:56.458Z,78.23
2018-11-02T03:08:25.807Z,78.20
2018-11-02T03:10:55.492Z,78.27
2018-11-02T03:13:24.798Z,78.21
2018-11-02T03:15:54.065Z,78.24
2018-11-02T03:18:23.727Z,78.17
2018-11-02T03:20:52.978Z,78.09
2018-11-02T03:23:22.325Z,78.04
2018-11-02T03:25:51.680Z,78.03
2018-11-02T03:28:20.855Z,78.01
2018-11-02T03:30:50.116Z,77.88
2018-11-02T03:33:19.545Z,78.00
2018-11-02T03:35:48.834Z,78.02
2018-11-02T03:38:18.594Z,77.73
2018-11-02T03:40:48.510Z,77.86
2018-11-02T03:43:17.977Z,77.99
2018-11-02T03:45:47.416Z,77.90
2018-11-02T03:48:17.176Z,77.95
2018-11-02T03:50:46.540Z,77.87
2018-11-02T03:53:16.181Z,77.96
2018-11-02T03:55:45.976Z,77.89
2018-11-02T03:58:15.440Z,77.82
2018-11-02T04:00:45.913Z,77.69
2018-11-02T04:03:15.529Z,78.02
2018-11-02T04:05:44.866Z,77.91
2018-11-02T04:08:14.329Z,78.06
2018-11-02T04:10:43.708Z,77.99
2018-11-02T04:13:13.002Z,77.95
2018-11-02T04:15:42.462Z,78.11
2018-11-02T04:18:11.628Z,77.96
2018-11-02T04:20:40.930Z,78.10
2018-11-02T04:23:10.225Z,78.04
2018-11-02T04:25:39.695Z,78.04
2018-11-02T04:28:08.980Z,78.05
2018-11-02T04:30:38.376Z,77.92
2018-11-02T04:33:07.866Z,77.86
2018-11-02T04:35:36.927Z,77.88
2018-11-02T04:38:06.317Z,78.00
2018-11-02T04:40:35.816Z,78.04
2018-11-02T04:43:05.025Z,78.24
2018-11-02T04:45:40.585Z,78.50
2018-11-02T04:48:12.103Z,78.53
2018-11-02T04:50:41.930Z,78.50
2018-11-02T04:53:11.020Z,78.59
2018-11-02T04:55:40.439Z,78.58
2018-11-02T04:58:10.112Z,78.80
2018-11-02T05:00:39.642Z,78.87
2018-11-02T05:03:08.916Z,78.76
2018-11-02T05:05:38.492Z,79.01
2018-11-02T05:08:07.885Z,79.00
2018-11-02T05:10:37.353Z,78.90
2018-11-02T05:13:07.184Z,78.79
2018-11-02T05:15:36.490Z,78.90
2018-11-02T05:18:05.917Z,79.00
2018-11-02T05:20:35.705Z,79.08
2018-11-02T05:23:05.051Z,78.99
2018-11-02T05:25:34.306Z,79.09
2018-11-02T05:28:04.144Z,79.13
2018-11-02T05:30:33.445Z,79.16
2018-11-02T05:33:02.760Z,79.12
2018-11-02T05:35:32.460Z,79.34
2018-11-02T05:38:01.839Z,79.20
2018-11-02T05:40:31.140Z,79.38
2018-11-02T05:43:00.800Z,79.39
2018-11-02T05:45:30.100Z,79.90
2018-11-02T05:47:59.462Z,79.75
2018-11-02T05:50:29.144Z,79.78
2018-11-02T05:52:58.618Z,79.60
2018-11-02T05:55:27.960Z,79.56
2018-11-02T05:57:57.833Z,79.58
2018-11-02T06:00:27.172Z,79.45
2018-11-02T06:02:56.426Z,79.38
2018-11-02T06:05:26.195Z,79.30
2018-11-02T06:07:55.501Z,79.25
2018-11-02T06:10:24.651Z,79.14
2018-11-02T06:12:54.287Z,79.15
2018-11-02T06:15:24.034Z,79.09
2018-11-02T06:17:53.241Z,78.87
2018-11-02T06:20:22.993Z,78.83
2018-11-02T06:22:52.348Z,79.12
2018-11-02T06:25:22.025Z,78.83
2018-11-02T06:27:51.492Z,78.75
2018-11-02T06:30:21.789Z,78.68
2018-11-02T06:32:50.950Z,78.77
2018-11-02T06:35:20.542Z,78.63
2018-11-02T06:37:49.675Z,78.91
2018-11-02T06:40:18.879Z,78.92
2018-11-02T06:42:48.908Z,78.82
2018-11-02T06:45:18.496Z,78.79
2018-11-02T06:47:48.170Z,78.91
2018-11-02T06:50:18.326Z,78.57
2018-11-02T06:52:47.924Z,78.96
2018-11-02T06:55:17.458Z,78.80
2018-11-02T06:57:47.481Z,78.80
2018-11-02T07:00:17.035Z,78.81
2018-11-02T07:02:46.613Z,78.99
2018-11-02T07:05:16.261Z,78.91
2018-11-02T07:07:45.959Z,78.81
2018-11-02T07:10:15.499Z,78.80
2018-11-02T07:12:45.568Z,78.92
2018-11-02T07:15:14.963Z,78.89
2018-11-02T07:17:44.464Z,78.94
2018-11-02T07:20:14.027Z,78.89
2018-11-02T07:22:43.343Z,79.08
2018-11-02T07:25:12.661Z,78.96
2018-11-02T07:27:42.436Z,79.15
2018-11-02T07:30:12.188Z,79.21
2018-11-02T07:32:41.614Z,79.11
2018-11-02T07:35:11.544Z,79.24
2018-11-02T07:37:40.993Z,79.30
2018-11-02T07:40:11.400Z,79.39
2018-11-02T07:42:40.983Z,79.46
2018-11-02T07:45:10.923Z,79.58
2018-11-02T07:47:40.179Z,80.00
2018-11-02T07:50:11.559Z,80.01
2018-11-02T07:52:41.224Z,80.10
2018-11-02T07:55:12.493Z,80.42
2018-11-02T07:57:41.868Z,80.45
2018-11-02T08:00:12.755Z,80.12
2018-11-02T08:02:44.017Z,80.07
2018-11-02T08:05:14.296Z,80.38
2018-11-02T08:07:44.031Z,80.32
2018-11-02T08:10:13.770Z,80.27
2018-11-02T08:12:43.057Z,80.30
2018-11-02T08:15:13.323Z,80.63
2018-11-02T08:17:43.217Z,80.67
2018-11-02T08:20:13.534Z,80.82
2018-11-02T08:22:43.384Z,81.15
2018-11-02T08:25:13.118Z,81.17
2018-11-02T08:27:42.667Z,81.49
2018-11-02T08:30:12.507Z,81.44
2018-11-02T08:32:41.716Z,81.51
2018-11-02T08:35:12.577Z,81.60
2018-11-02T08:37:42.459Z,81.76
2018-11-02T08:40:12.974Z,81.53
2018-11-02T08:42:42.598Z,81.93
2018-11-02T08:45:12.361Z,82.02
2018-11-02T08:47:41.679Z,81.95
2018-11-02T08:50:11.381Z,81.98
2018-11-02T08:52:40.786Z,82.13
2018-11-02T08:55:10.121Z,82.38
2018-11-02T08:57:39.584Z,82.35
2018-11-02T09:00:10.889Z,82.38
2018-11-02T09:02:40.532Z,82.45
2018-11-02T09:05:09.883Z,82.45
2018-11-02T09:07:39.501Z,82.30
2018-11-02T09:10:10.616Z,82.80
2018-11-02T09:12:39.934Z,82.69
2018-11-02T09:15:09.265Z,82.61
2018-11-02T09:17:38.567Z,82.66
2018-11-02T09:20:07.794Z,82.76
2018-11-02T09:22:37.180Z,82.74
2018-11-02T09:25:07.899Z,83.07
2018-11-02T09:27:37.268Z,82.74
2018-11-02T09:30:10.430Z,82.94
2018-11-02T09:32:39.664Z,83.08
2018-11-02T09:35:08.799Z,83.03
2018-11-02T09:37:38.501Z,83.05
2018-11-02T09:40:08.909Z,83.10
2018-11-02T09:42:38.182Z,83.00
2018-11-02T09:45:09.375Z,83.28
2018-11-02T09:47:38.703Z,83.30
2018-11-02T09:50:08.768Z,83.04
2018-11-02T09:52:38.817Z,82.91
2018-11-02T09:55:10.254Z,82.91
2018-11-02T09:57:40.012Z,82.66
2018-11-02T10:00:10.705Z,82.61
2018-11-02T10:02:39.993Z,82.76
2018-11-02T10:05:10.778Z,82.78
2018-11-02T10:07:40.862Z,82.42
2018-11-02T10:10:11.794Z,82.43
2018-11-02T10:12:41.042Z,82.35
2018-11-02T10:15:12.852Z,82.42
2018-11-02T10:17:42.596Z,82.15
2018-11-02T10:20:12.295Z,82.23
2018-11-02T10:22:41.762Z,82.41
2018-11-02T10:25:11.580Z,82.47
2018-11-02T10:27:42.651Z,82.00
2018-11-02T10:30:13.525Z,82.23
2018-11-02T10:32:44.924Z,82.24
2018-11-02T10:35:14.697Z,82.32
2018-11-02T10:37:44.398Z,82.05
2018-11-02T10:40:16.164Z,82.11
2018-11-02T10:42:49.132Z,82.15
2018-11-02T10:45:18.559Z,82.03
2018-11-02T10:47:48.397Z,82.23
2018-11-02T10:50:18.166Z,82.33
2018-11-02T10:52:47.761Z,82.33
2018-11-02T10:55:16.963Z,82.25
2018-11-02T10:57:46.749Z,82.40
2018-11-02T11:00:21.312Z,82.20
2018-11-02T11:02:50.904Z,82.52
2018-11-02T11:05:20.279Z,82.67
2018-11-02T11:07:49.807Z,83.04
2018-11-02T11:10:19.254Z,82.76
2018-11-02T11:12:48.759Z,82.91
2018-11-02T11:15:18.180Z,83.05
2018-11-02T11:17:47.725Z,82.75
2018-11-02T11:20:17.554Z,82.82
2018-11-02T11:22:47.068Z,83.02
2018-11-02T11:25:16.732Z,82.99
2018-11-02T11:27:45.957Z,82.99
2018-11-02T11:30:17.860Z,82.96
2018-11-02T11:32:48.217Z,83.09
2018-11-02T11:35:18.785Z,83.69
2018-11-02T11:37:48.271Z,83.45
2018-11-02T11:40:19.354Z,83.39
2018-11-02T11:42:48.695Z,83.38
2018-11-02T11:45:18.875Z,83.46
2018-11-02T11:47:48.534Z,83.38
2018-11-02T11:50:21.222Z,83.21
2018-11-02T11:52:51.785Z,83.34
2018-11-02T11:55:21.313Z,83.36
2018-11-02T11:57:50.946Z,83.15
2018-11-02T12:00:21.703Z,82.97
2018-11-02T12:02:51.506Z,83.13
2018-11-02T12:05:37.802Z,82.92
2018-11-02T12:08:07.337Z,83.09
2018-11-02T12:10:36.805Z,83.06
2018-11-02T12:13:06.872Z,83.00
2018-11-02T12:15:36.236Z,82.89
2018-11-02T12:18:05.821Z,82.90
2018-11-02T12:20:35.901Z,82.78
2018-11-02T12:23:05.566Z,82.78
2018-11-02T12:25:34.968Z,82.35
2018-11-02T12:28:05.090Z,82.53
2018-11-02T12:30:34.294Z,82.72
2018-11-02T12:33:03.595Z,82.47
2018-11-02T12:35:33.313Z,82.05
2018-11-02T12:38:02.570Z,82.44
2018-11-02T12:40:31.972Z,82.23
2018-11-02T12:43:01.716Z,82.09
2018-11-02T12:45:31.223Z,82.22
2018-11-02T12:48:00.516Z,82.06
2018-11-02T12:50:30.390Z,82.27
2018-11-02T12:53:00.307Z,81.89
2018-11-02T12:55:29.631Z,81.75
2018-11-02T12:57:59.370Z,81.51
2018-11-02T13:00:29.311Z,81.50
2018-11-02T13:02:58.842Z,81.32
2018-11-02T13:05:28.685Z,81.59
2018-11-02T13:07:57.921Z,81.35
2018-11-02T13:10:27.445Z,81.32
2018-11-02T13:12:57.090Z,81.58
2018-11-02T13:15:26.407Z,81.66
2018-11-02T13:17:55.861Z,81.53
2018-11-02T13:20:25.396Z,81.59
2018-11-02T13:22:54.635Z,81.43
2018-11-02T13:25:24.167Z,81.58
2018-11-02T13:27:53.788Z,81.70
2018-11-02T13:30:23.085Z,81.65
2018-11-02T13:32:52.304Z,81.51
2018-11-02T13:35:21.883Z,81.46
2018-11-02T13:37:51.643Z,81.65
2018-11-02T13:40:21.090Z,81.73
2018-11-02T13:42:50.589Z,81.56
2018-11-02T13:45:20.308Z,81.67
2018-11-02T13:47:49.741Z,81.35
2018-11-02T13:50:19.270Z,81.41
2018-11-02T13:52:48.648Z,81.65
2018-11-02T13:55:18.228Z,81.72
2018-11-02T13:57:47.998Z,81.55
2018-11-02T14:00:18.413Z,81.41
2018-11-02T14:02:48.174Z,81.61
2018-11-02T14:05:18.114Z,81.49
2018-11-02T14:07:47.549Z,81.43
2018-11-02T14:10:17.153Z,81.62
2018-11-02T14:12:46.785Z,81.86
2018-11-02T14:15:17.164Z,81.82
2018-11-02T14:17:46.711Z,81.93
2018-11-02T14:20:16.382Z,81.85
2018-11-02T14:22:45.873Z,81.93
2018-11-02T14:25:16.496Z,81.54
2018-11-02T14:27:46.070Z,81.65
2018-11-02T14:30:16.629Z,81.79
2018-11-02T14:32:46.837Z,81.92
2018-11-02T14:35:16.053Z,81.92
2018-11-02T14:37:45.582Z,81.69
2018-11-02T14:40:15.159Z,81.86
2018-11-02T14:42:44.421Z,81.64
2018-11-02T14:45:15.579Z,81.72
2018-11-02T14:47:46.214Z,81.35
2018-11-02T14:50:15.916Z,81.66
2018-11-02T14:52:45.593Z,81.83
2018-11-02T14:55:15.086Z,81.26
2018-11-02T14:57:44.924Z,81.71
2018-11-02T15:00:14.371Z,81.64
2018-11-02T15:02:43.901Z,81.47
2018-11-02T15:05:13.928Z,81.48
2018-11-02T15:07:43.811Z,81.62
2018-11-02T15:10:13.254Z,81.56
2018-11-02T15:12:42.639Z,81.70
2018-11-02T15:15:12.241Z,82.27
2018-11-02T15:17:41.669Z,82.30
2018-11-02T15:20:12.800Z,82.20
2018-11-02T15:22:42.318Z,82.58
2018-11-02T15:25:11.751Z,83.07
2018-11-02T15:27:41.255Z,83.09
2018-11-02T15:30:12.738Z,83.47
2018-11-02T15:32:43.003Z,83.47
2018-11-02T15:35:12.862Z,83.73
2018-11-02T15:37:42.538Z,83.51
2018-11-02T15:40:13.080Z,83.94
2018-11-02T15:42:42.760Z,84.20
2018-11-02T15:45:13.568Z,84.40
2018-11-02T15:47:43.241Z,84.42
2018-11-02T15:50:12.943Z,84.49
2018-11-02T15:52:42.590Z,84.61
2018-11-02T15:55:12.622Z,85.02
2018-11-02T15:57:42.457Z,84.85
2018-11-02T16:00:17.836Z,84.53
2018-11-02T16:02:48.935Z,84.87
2018-11-02T16:05:18.661Z,84.95
2018-11-02T16:07:48.623Z,85.24
2018-11-02T16:10:17.879Z,85.47
2018-11-02T16:12:47.399Z,85.18
2018-11-02T16:15:17.073Z,85.24
2018-11-02T16:17:46.839Z,85.44
2018-11-02T16:20:16.910Z,85.60
2018-11-02T16:22:46.455Z,85.06
2018-11-02T16:25:16.059Z,85.06
2018-11-02T16:27:45.746Z,84.88
2018-11-02T16:33:48.375Z,84.83
2018-11-02T16:36:17.971Z,84.46
2018-11-02T16:38:47.507Z,84.68
2018-11-02T16:41:17.360Z,84.59
2018-11-02T16:43:46.839Z,84.76
2018-11-02T16:46:16.116Z,84.75
2018-11-02T16:48:46.099Z,84.56
2018-11-02T16:51:15.487Z,84.28
2018-11-02T16:53:45.052Z,84.15
2018-11-02T16:56:14.942Z,83.86
2018-11-02T16:58:44.411Z,83.88
2018-11-02T17:01:13.793Z,83.57
2018-11-02T17:03:43.424Z,83.48
2018-11-02T17:06:12.833Z,83.29
2018-11-02T17:08:41.994Z,83.38
2018-11-02T17:11:11.650Z,83.04
2018-11-02T17:13:41.029Z,83.10
2018-11-02T17:16:10.273Z,83.04
2018-11-02T17:18:40.547Z,83.00
2018-11-02T17:21:10.022Z,83.08
2018-11-02T17:23:39.542Z,82.86
2018-11-02T17:26:09.209Z,82.84
2018-11-02T17:28:38.673Z,82.67
2018-11-02T17:31:07.986Z,82.10
2018-11-02T17:33:38.218Z,82.23
2018-11-02T17:36:07.781Z,82.03
2018-11-02T17:38:37.196Z,82.06
2018-11-02T17:41:07.178Z,81.73
2018-11-02T17:43:36.624Z,81.68
2018-11-02T17:46:06.339Z,81.38
2018-11-02T17:48:35.896Z,81.66
2018-11-02T17:51:05.424Z,81.56
2018-11-02T17:53:35.027Z,81.21
2018-11-02T17:56:04.892Z,81.32
2018-11-02T17:58:34.470Z,81.05
2018-11-02T18:01:03.779Z,80.74
2018-11-02T18:03:33.471Z,80.93
2018-11-02T18:06:03.117Z,80.58
2018-11-02T18:08:32.738Z,80.57
2018-11-02T18:11:02.170Z,80.53
2018-11-02T18:13:31.548Z,80.62
2018-11-02T18:16:01.556Z,80.41
2018-11-02T18:18:31.171Z,80.47
2018-11-02T18:21:00.490Z,80.46
2018-11-02T18:23:29.824Z,80.95
2018-11-02T18:25:59.442Z,80.34
2018-11-02T18:28:28.696Z,80.50
2018-11-02T18:30:58.069Z,80.70
2018-11-02T18:33:27.411Z,80.44
2018-11-02T18:35:56.611Z,80.58
2018-11-02T18:38:26.248Z,80.64
2018-11-02T18:40:55.785Z,80.76
2018-11-02T18:43:25.176Z,80.62
2018-11-02T18:45:54.812Z,80.81
2018-11-02T18:48:24.458Z,80.66
2018-11-02T18:50:53.646Z,80.74
2018-11-02T18:53:23.147Z,80.61
2018-11-02T18:55:53.112Z,80.72
2018-11-02T18:58:22.662Z,80.58
2018-11-02T19:00:53.165Z,80.83
2018-11-02T19:03:22.903Z,80.75
2018-11-02T19:05:52.267Z,80.73
2018-11-02T19:08:21.635Z,80.73
2018-11-02T19:10:51.189Z,80.62
2018-11-02T19:13:20.759Z,80.67
2018-11-02T19:15:50.247Z,80.67
2018-11-02T19:18:19.730Z,80.53
2018-11-02T19:20:49.234Z,80.52
2018-11-02T19:23:18.395Z,80.56
2018-11-02T19:25:47.982Z,80.45
2018-11-02T19:28:17.587Z,80.72
2018-11-02T19:30:47.043Z,80.59
2018-11-02T19:33:16.680Z,80.79
2018-11-02T19:35:46.319Z,80.68
2018-11-02T19:38:16.077Z,80.69
2018-11-02T19:40:45.926Z,80.78
2018-11-02T19:43:15.492Z,80.50
2018-11-02T19:45:45.226Z,80.80
2018-11-02T19:48:14.938Z,81.08
2018-11-02T19:50:44.342Z,80.72
2018-11-02T19:53:13.889Z,80.80
2018-11-02T19:55:43.417Z,81.05
2018-11-02T19:58:12.663Z,81.21
2018-11-02T20:00:42.153Z,81.41
2018-11-02T20:03:11.853Z,81.54
2018-11-02T20:05:41.272Z,81.63
2018-11-02T20:08:10.734Z,81.75
2018-11-02T20:10:40.348Z,82.04
2018-11-02T20:13:09.753Z,82.04
2018-11-02T20:15:39.221Z,82.10
2018-11-02T20:18:08.905Z,82.20
2018-11-02T20:20:38.501Z,82.26
2018-11-02T20:23:08.138Z,82.30
2018-11-02T20:25:37.976Z,82.35
2018-11-02T20:28:07.462Z,82.43
2018-11-02T20:30:37.068Z,82.44
2018-11-02T20:33:06.753Z,82.51
2018-11-02T20:35:36.003Z,82.85
2018-11-02T20:38:07.064Z,82.75
2018-11-02T20:40:36.727Z,83.00
2018-11-02T20:43:05.950Z,82.86
2018-11-02T20:45:35.583Z,82.90
2018-11-02T20:48:05.577Z,83.04
2018-11-02T20:50:34.955Z,83.18
2018-11-02T20:53:04.656Z,83.19
2018-11-02T20:55:34.396Z,83.17
2018-11-02T20:58:03.746Z,83.31
2018-11-02T21:00:33.212Z,83.22
2018-11-02T21:03:03.505Z,83.22
2018-11-02T21:05:32.782Z,83.23
2018-11-02T21:08:02.487Z,83.40
2018-11-02T21:10:31.956Z,83.38
2018-11-02T21:13:01.471Z,83.35
2018-11-02T21:15:30.897Z,83.28
2018-11-02T21:18:00.431Z,83.41
2018-11-02T21:20:29.852Z,83.68
2018-11-02T21:22:59.461Z,83.85
2018-11-02T21:25:28.864Z,83.72
2018-11-02T21:27:58.344Z,83.72
2018-11-02T21:30:27.860Z,83.84
2018-11-02T21:32:57.134Z,83.80
2018-11-02T21:35:26.543Z,83.84
2018-11-02T21:37:56.230Z,83.84
2018-11-02T21:40:26.185Z,84.23
2018-11-02T21:42:55.405Z,84.94
2018-11-02T21:45:25.253Z,84.65
2018-11-02T21:47:54.805Z,84.34
2018-11-02T21:50:24.028Z,84.16
2018-11-02T21:52:53.651Z,84.42
2018-11-02T21:55:23.750Z,84.14
2018-11-02T21:57:53.152Z,84.08
2018-11-02T22:00:23.594Z,83.91
2018-11-02T22:02:53.181Z,83.78
2018-11-02T22:05:22.351Z,83.53
2018-11-02T22:07:52.037Z,83.37
2018-11-02T22:10:21.888Z,83.22
2018-11-02T22:12:51.238Z,83.06
2018-11-02T22:15:21.027Z,83.05
2018-11-02T22:17:50.687Z,82.94
2018-11-02T22:20:20.015Z,82.93
2018-11-02T22:22:49.569Z,82.74
2018-11-02T22:25:19.224Z,82.47
2018-11-02T22:27:48.621Z,82.43
2018-11-02T22:30:18.474Z,82.30
2018-11-02T22:32:48.252Z,82.52
2018-11-02T22:35:17.922Z,82.51
2018-11-02T22:37:47.690Z,82.10
2018-11-02T22:40:17.639Z,81.77
2018-11-02T22:42:47.232Z,81.76
2018-11-02T22:45:16.993Z,81.71
2018-11-02T22:47:51.665Z,81.34
2018-11-02T22:50:21.272Z,81.17
2018-11-02T22:52:50.471Z,80.92
2018-11-02T22:55:19.911Z,80.99
2018-11-02T22:57:49.641Z,80.88
2018-11-02T23:00:19.692Z,80.65
2018-11-02T23:02:49.547Z,80.66
2018-11-02T23:05:19.192Z,80.51
2018-11-02T23:07:48.818Z,80.37
2018-11-02T23:10:18.655Z,80.44
2018-11-02T23:12:48.416Z,80.54
2018-11-02T23:15:17.910Z,80.22
2018-11-02T23:17:47.735Z,79.93
2018-11-02T23:20:17.471Z,80.12
2018-11-02T23:22:46.987Z,79.85
2018-11-02T23:25:16.617Z,79.53
2018-11-02T23:27:46.183Z,79.46
2018-11-02T23:30:15.606Z,79.29
2018-11-02T23:32:45.178Z,78.91
2018-11-02T23:35:14.895Z,78.58
2018-11-02T23:37:44.256Z,78.48
2018-11-02T23:40:14.013Z,78.50
2018-11-02T23:42:43.770Z,78.03
2018-11-02T23:45:13.317Z,77.92
2018-11-02T23:48:45.863Z,78.15
2018-11-02T23:51:15.697Z,77.52
2018-11-02T23:53:45.017Z,77.66
2018-11-02T23:56:14.416Z,77.66
2018-11-02T23:58:44.073Z,77.44
